Time;durP1;ratioP1;P1;durP2;ratioP2;P2;SDS_P1;SDS_P2;PMS_P1;PMS_P2;Temp;Humidity;BMP_temperature;BMP_pressure;BME280_temperature;BME280_humidity;BME280_pressure;Samples;Min_cycle;Max_cycle;Signal;HPM_P1;HPM_P2
2023/07/09 00:02:21;;;;;;;5.43;4.93;;;;;;;20.71;64.04;99990.25;5092426;28;20028;-81
2023/07/09 00:04:47;;;;;;;5.95;4.90;;;;;;;20.59;64.56;99974.41;5092268;28;20028;-81
2023/07/09 00:07:30;;;;;;;6.00;4.68;;;;;;;20.61;64.34;99980.44;5092289;28;20472;-81
2023/07/09 00:09:56;;;;;;;5.10;4.60;;;;;;;20.64;64.44;99988.09;5092361;28;20098;-81
2023/07/09 00:12:23;;;;;;;5.88;4.80;;;;;;;20.60;65.04;99981.38;5092210;28;20036;-81
2023/07/09 00:14:48;;;;;;;6.13;5.03;;;;;;;20.51;64.54;99974.22;5092361;28;20024;-81
2023/07/09 00:17:43;;;;;;;6.55;5.30;;;;;;;20.62;65.27;99994.50;5092033;28;20103;-81
2023/07/09 00:20:14;;;;;;;5.20;4.70;;;;;;;20.61;64.75;99991.03;5089547;28;20062;-81
2023/07/09 00:22:51;;;;;;;5.88;4.95;;;;;;;20.54;65.55;99976.63;5089630;28;20062;-81
2023/07/09 00:25:19;;;;;;;7.80;4.60;;;;;;;20.55;65.43;99975.63;5089598;28;20502;-81
2023/07/09 00:27:48;;;;;;;5.03;4.53;;;;;;;20.54;65.41;99973.97;5089662;28;20036;-81
2023/07/09 00:30:17;;;;;;;5.30;4.80;;;;;;;20.41;65.41;99955.59;5087470;28;20032;-81
2023/07/09 00:32:43;;;;;;;4.75;4.35;;;;;;;20.45;65.37;99956.19;5069578;28;20037;-81
2023/07/09 00:35:12;;;;;;;5.95;4.78;;;;;;;20.51;65.42;99974.22;5069329;28;20117;-81
2023/07/09 00:37:37;;;;;;;6.78;5.05;;;;;;;20.52;66.24;99977.69;5068959;28;20044;-81
2023/07/09 00:40:04;;;;;;;6.00;5.07;;;;;;;20.34;65.92;99953.56;5069363;28;20123;-81
2023/07/09 00:42:30;;;;;;;5.20;4.70;;;;;;;20.38;66.27;99968.22;5069164;28;20032;-81
2023/07/09 00:44:55;;;;;;;5.38;4.85;;;;;;;20.29;66.41;99950.47;5069418;28;20520;-81
2023/07/09 00:47:23;;;;;;;6.43;5.80;;;;;;;20.37;66.71;99983.25;5068974;28;20766;-81
2023/07/09 00:49:57;;;;;;;5.53;4.88;;;;;;;20.09;67.20;99942.34;5069901;28;20388;-81
2023/07/09 00:52:27;;;;;;;5.85;5.10;;;;;;;20.23;67.01;99969.50;5072984;28;20029;-81
2023/07/09 00:54:54;;;;;;;5.82;5.28;;;;;;;20.02;67.20;99935.06;5073119;28;20040;-81
2023/07/09 00:57:26;;;;;;;6.38;4.78;;;;;;;20.07;67.49;99946.94;5074750;28;20040;-81
2023/07/09 01:00:00;;;;;;;6.15;5.18;;;;;;;20.05;67.91;99942.72;5075395;28;20473;-81
2023/07/09 01:02:25;;;;;;;6.10;5.13;;;;;;;20.01;67.97;99958.00;5075362;28;20029;-81
2023/07/09 01:04:54;;;;;;;7.45;5.57;;;;;;;19.76;68.61;99923.94;5075255;28;20028;-81
2023/07/09 01:07:21;;;;;;;5.72;4.97;;;;;;;19.78;68.93;99937.88;5074953;28;20024;-81
2023/07/09 01:09:46;;;;;;;9.23;5.50;;;;;;;19.89;68.96;99965.16;5075059;28;20024;-81
2023/07/09 01:12:14;;;;;;;5.15;4.65;;;;;;;19.79;68.89;99958.91;5075019;28;20468;-81
2023/07/09 01:14:40;;;;;;;5.90;4.63;;;;;;;19.82;69.52;99971.88;5075035;28;20032;-81
2023/07/09 01:17:07;;;;;;;5.65;4.88;;;;;;;19.59;69.68;99938.47;5075115;28;20035;-81
2023/07/09 01:19:44;;;;;;;5.60;4.95;;;;;;;19.63;70.05;99945.22;5075017;28;20016;-81
2023/07/09 01:22:18;;;;;;;7.25;4.97;;;;;;;19.72;70.20;99975.34;5075243;28;20116;-81
2023/07/09 01:24:54;;;;;;;5.35;4.32;;;;;;;19.69;70.05;99974.66;5074902;28;20494;-81
2023/07/09 01:27:33;;;;;;;5.15;4.57;;;;;;;19.58;70.40;99963.22;5074988;28;20063;-81
2023/07/09 01:30:01;;;;;;;6.53;5.35;;;;;;;19.53;70.03;99949.53;5075090;28;20035;-81
2023/07/09 01:32:27;;;;;;;4.95;4.45;;;;;;;19.56;69.88;99971.28;5074832;28;20021;-81
2023/07/09 01:35:00;;;;;;;5.53;4.85;;;;;;;19.55;70.18;99974.88;5074960;28;20020;-81
2023/07/09 01:37:27;;;;;;;7.45;5.13;;;;;;;19.52;70.56;99966.34;5074830;28;20048;-81
2023/07/09 01:39:53;;;;;;;5.15;4.65;;;;;;;19.44;70.83;99959.88;5074650;28;20055;-81
2023/07/09 01:42:21;;;;;;;6.72;5.13;;;;;;;19.53;71.29;99974.16;5074722;28;20468;-81
2023/07/09 01:44:50;;;;;;;5.93;5.10;;;;;;;19.40;71.70;99961.06;5074805;28;20110;-81
2023/07/09 01:47:16;;;;;;;7.03;5.20;;;;;;;19.47;72.01;99976.41;5074574;28;20419;-81
2023/07/09 01:49:46;;;;;;;7.18;5.55;;;;;;;19.47;71.93;99976.41;5073260;28;20025;-81
2023/07/09 01:52:13;;;;;;;5.82;4.50;;;;;;;19.44;72.11;99977.53;5074563;28;20548;-81
2023/07/09 01:54:39;;;;;;;5.30;4.65;;;;;;;19.29;72.55;99960.22;5074083;28;20503;-81
2023/07/09 01:57:24;;;;;;;6.78;4.22;;;;;;;19.38;72.05;99975.34;5074815;28;20028;-81
2023/07/09 01:59:54;;;;;;;6.78;4.97;;;;;;;19.29;72.08;99962.84;5074342;28;20024;-81
2023/07/09 02:02:21;;;;;;;5.72;4.47;;;;;;;19.39;72.16;99974.41;5072862;28;20036;-81
2023/07/09 02:04:54;;;;;;;6.20;4.88;;;;;;;19.21;72.28;99955.53;5074171;28;20036;-81
2023/07/09 02:07:21;;;;;;;6.15;4.68;;;;;;;19.36;72.53;99982.56;5073919;28;20369;-81
2023/07/09 02:09:46;;;;;;;5.72;5.07;;;;;;;19.22;73.29;99972.25;5074230;28;20031;-81
2023/07/09 02:12:12;;;;;;;5.50;4.60;;;;;;;19.12;73.38;99953.59;5074086;28;20384;-81
2023/07/09 02:14:39;;;;;;;5.80;4.93;;;;;;;19.24;73.94;99976.41;5073954;28;20033;-80
2023/07/09 02:17:05;;;;;;;6.47;5.82;;;;;;;19.18;73.70;99971.63;5073966;28;20029;-81
2023/07/09 02:19:30;;;;;;;5.32;4.68;;;;;;;19.22;73.85;99982.81;5073861;28;20129;-81
2023/07/09 02:21:56;;;;;;;5.30;4.80;;;;;;;19.04;73.96;99964.75;5074060;28;20024;-81
2023/07/09 02:24:26;;;;;;;6.40;4.72;;;;;;;19.07;74.55;99974.25;5073629;28;20028;-81
2023/07/09 02:26:52;;;;;;;5.15;4.65;;;;;;;19.12;74.01;99986.13;5073942;28;20032;-81
2023/07/09 02:29:18;;;;;;;5.50;4.93;;;;;;;19.05;74.03;99977.00;5073873;28;20380;-81
2023/07/09 02:31:44;;;;;;;8.52;5.03;;;;;;;19.05;73.65;99982.28;5073403;28;20035;-81
2023/07/09 02:34:10;;;;;;;5.82;4.55;;;;;;;18.97;74.26;99962.72;5073763;28;20407;-81
2023/07/09 02:36:35;;;;;;;6.60;5.05;;;;;;;18.87;75.30;99952.84;5073599;28;20047;-81
2023/07/09 02:39:01;;;;;;;6.93;5.25;;;;;;;18.88;75.35;99957.19;5073836;28;20017;-81
2023/07/09 02:41:26;;;;;;;7.35;5.60;;;;;;;18.97;75.22;99991.75;5073442;28;20100;-81
2023/07/09 02:43:51;;;;;;;8.00;4.57;;;;;;;18.74;75.56;99972.38;5073755;28;20029;-81
2023/07/09 02:46:16;;;;;;;5.07;4.57;;;;;;;18.69;74.49;99957.72;5073549;28;20028;-81
2023/07/09 02:48:42;;;;;;;5.18;4.53;;;;;;;18.82;74.66;99970.00;5073431;28;20031;-81
2023/07/09 02:51:08;;;;;;;5.70;4.80;;;;;;;18.83;75.59;99974.31;5073596;28;20115;-81
2023/07/09 02:53:33;;;;;;;5.75;5.20;;;;;;;18.76;76.13;99973.09;5073282;28;20060;-81
2023/07/09 02:55:58;;;;;;;5.90;4.72;;;;;;;18.81;75.97;99992.06;5073253;28;20467;-81
2023/07/09 02:58:24;;;;;;;5.75;5.22;;;;;;;18.63;75.96;99959.97;5073088;28;20021;-81
2023/07/09 03:00:52;;;;;;;6.13;5.10;;;;;;;18.65;75.52;99961.50;5073115;28;20035;-81
2023/07/09 03:03:19;;;;;;;7.10;4.75;;;;;;;18.82;75.31;99997.22;5073243;28;20072;-80
2023/07/09 03:05:46;;;;;;;5.57;4.80;;;;;;;18.69;76.08;99975.31;5072907;28;20116;-81
2023/07/09 03:08:11;;;;;;;5.65;5.00;;;;;;;18.80;76.28;99987.75;5073176;28;20055;-81
2023/07/09 03:10:37;;;;;;;5.40;4.65;;;;;;;18.73;76.24;99984.72;5073421;28;20029;-81
2023/07/09 03:13:02;;;;;;;5.85;5.10;;;;;;;18.69;76.13;100005.22;5072748;28;20427;-81
2023/07/09 03:15:28;;;;;;;8.00;4.95;;;;;;;18.55;76.59;99968.44;5072811;28;20446;-81
2023/07/09 03:17:53;;;;;;;5.65;5.15;;;;;;;18.56;76.35;99978.03;5073169;28;20028;-81
2023/07/09 03:20:18;;;;;;;5.50;5.00;;;;;;;18.59;76.20;99980.44;5073248;28;20479;-81
2023/07/09 03:22:44;;;;;;;6.38;5.25;;;;;;;18.60;75.87;99982.13;5072579;28;20099;-81
2023/07/09 03:25:09;;;;;;;6.25;5.28;;;;;;;18.64;75.47;99983.59;5072772;28;20476;-81
2023/07/09 03:27:35;;;;;;;5.47;4.97;;;;;;;18.77;75.98;100001.16;5072347;28;20428;-81
2023/07/09 03:30:00;;;;;;;8.23;5.10;;;;;;;18.76;75.89;100007.41;5072717;28;20111;-81
2023/07/09 03:32:25;;;;;;;6.25;5.55;;;;;;;18.57;76.61;99973.59;5072639;28;20373;-81
2023/07/09 03:34:52;;;;;;;7.25;5.43;;;;;;;18.73;76.25;99997.91;5072687;28;20116;-81
2023/07/09 03:37:18;;;;;;;6.25;5.32;;;;;;;18.59;75.96;99971.69;5070152;28;20056;-81
2023/07/09 03:39:45;;;;;;;7.43;5.63;;;;;;;18.78;75.92;99979.09;5072281;28;20035;-81
2023/07/09 03:42:11;;;;;;;5.20;4.70;;;;;;;18.76;75.35;99984.50;5072531;28;20043;-81
2023/07/09 03:44:36;;;;;;;7.38;5.13;;;;;;;18.79;75.77;99983.41;5072091;28;20025;-81
2023/07/09 03:47:01;;;;;;;6.28;5.07;;;;;;;18.81;76.30;99994.72;5072473;28;20024;-81
2023/07/09 03:49:27;;;;;;;7.18;5.65;;;;;;;18.91;76.34;99998.31;5072744;28;20040;-81
2023/07/09 03:51:52;;;;;;;6.30;5.70;;;;;;;18.97;74.99;100007.59;5072435;28;20387;-81
2023/07/09 03:54:17;;;;;;;6.78;6.07;;;;;;;19.00;74.99;100004.69;5072234;28;20056;-81
2023/07/09 03:56:44;;;;;;;6.40;5.57;;;;;;;19.14;74.90;100010.63;5072529;28;20031;-81
2023/07/09 03:59:09;;;;;;;6.93;5.78;;;;;;;19.14;74.19;99984.22;5072411;28;20024;-81
2023/07/09 04:01:34;;;;;;;7.97;6.22;;;;;;;19.18;73.87;99990.09;5072686;28;20028;-81
2023/07/09 04:04:00;;;;;;;7.38;5.40;;;;;;;19.30;74.45;99993.59;5072232;28;20026;-81
2023/07/09 04:06:25;;;;;;;7.78;5.72;;;;;;;19.54;74.23;100026.03;5072422;28;20048;-81
2023/07/09 04:08:50;;;;;;;7.80;6.53;;;;;;;19.49;74.41;100011.50;5072099;28;20031;-81
2023/07/09 04:11:16;;;;;;;5.93;5.32;;;;;;;19.57;74.12;100007.28;5072089;28;20046;-81
2023/07/09 04:13:41;;;;;;;6.65;5.90;;;;;;;19.78;74.93;100001.31;5071697;28;20480;-81
2023/07/09 04:16:06;;;;;;;7.63;6.80;;;;;;;19.97;74.08;100001.50;5072039;28;20561;-81
2023/07/09 04:18:32;;;;;;;6.70;5.70;;;;;;;20.39;73.84;100009.59;5072013;28;20115;-81
2023/07/09 04:20:57;;;;;;;9.18;7.00;;;;;;;20.93;73.15;100027.19;5072286;28;20476;-81
2023/07/09 04:23:22;;;;;;;6.28;5.68;;;;;;;21.40;71.42;99993.22;5071986;28;20024;-81
2023/07/09 04:25:48;;;;;;;7.88;5.97;;;;;;;22.27;68.70;99998.81;5074683;28;20028;-81
2023/07/09 04:28:14;;;;;;;7.32;6.25;;;;;;;23.60;64.32;100017.53;5076232;28;20426;-82
2023/07/09 04:30:47;;;;;;;6.25;5.30;;;;;;;24.84;62.01;99998.25;5075964;28;20523;-82
2023/07/09 04:33:13;;;;;;;6.43;5.80;;;;;;;25.59;60.28;99997.75;5076273;28;20024;-82
2023/07/09 04:35:38;;;;;;;7.07;5.85;;;;;;;25.97;59.19;100015.13;5076063;28;20472;-82
2023/07/09 04:38:03;;;;;;;7.25;5.85;;;;;;;25.81;59.86;100023.88;5075983;28;20393;-82
2023/07/09 04:40:29;;;;;;;7.03;5.38;;;;;;;25.24;60.02;99990.72;5075712;28;20484;-82
2023/07/09 04:42:54;;;;;;;6.57;5.63;;;;;;;25.24;61.62;100022.72;5076110;28;20472;-82
2023/07/09 04:45:19;;;;;;;7.68;6.47;;;;;;;25.18;59.38;100032.19;5076069;28;20025;-82
2023/07/09 04:47:45;;;;;;;6.43;5.82;;;;;;;25.44;59.49;100029.50;5075756;28;20396;-81
2023/07/09 04:50:11;;;;;;;11.43;6.63;;;;;;;25.88;57.00;100029.44;5075982;28;20103;-82
2023/07/09 04:52:36;;;;;;;6.85;5.95;;;;;;;26.84;55.70;100012.91;5075416;28;20036;-82
2023/07/09 04:55:02;;;;;;;7.50;6.75;;;;;;;28.20;53.27;100024.44;5075678;28;20396;-82
2023/07/09 04:57:28;;;;;;;8.02;5.45;;;;;;;28.95;50.95;100009.50;5075662;28;20089;-82
2023/07/09 04:59:53;;;;;;;6.18;5.65;;;;;;;29.02;51.59;100018.53;5075574;28;20021;-82
2023/07/09 05:02:19;;;;;;;6.35;5.80;;;;;;;28.46;52.02;100020.63;5075851;28;20024;-82
2023/07/09 05:04:44;;;;;;;5.90;5.20;;;;;;;27.88;53.23;100017.41;5075460;28;20028;-82
2023/07/09 05:07:09;;;;;;;7.60;6.25;;;;;;;27.59;53.96;100037.56;5075373;28;20035;-82
2023/07/09 05:09:35;;;;;;;6.78;5.68;;;;;;;27.33;55.03;100019.06;5075386;28;20103;-82
2023/07/09 05:12:01;;;;;;;5.97;5.40;;;;;;;27.69;54.10;100039.22;5075345;28;20384;-82
2023/07/09 05:14:29;;;;;;;8.18;5.68;;;;;;;28.07;53.00;100014.31;5075641;28;20035;-82
2023/07/09 05:16:55;;;;;;;5.75;5.20;;;;;;;29.25;50.94;100037.25;5073953;28;20025;-82
2023/07/09 05:19:20;;;;;;;5.53;5.03;;;;;;;30.20;50.10;100025.75;5075324;28;20029;-82
2023/07/09 05:21:45;;;;;;;6.88;6.28;;;;;;;30.57;48.29;100046.22;5075054;28;20035;-82
2023/07/09 05:24:11;;;;;;;7.25;6.30;;;;;;;30.03;49.22;100033.19;5075161;28;20458;-82
2023/07/09 05:26:36;;;;;;;6.20;5.70;;;;;;;29.36;50.77;100025.22;5074634;28;20033;-82
2023/07/09 05:29:05;;;;;;;6.35;5.72;;;;;;;29.16;51.94;100043.69;5074917;28;20032;-82
2023/07/09 05:31:31;;;;;;;6.35;5.75;;;;;;;28.96;52.58;100046.03;5075342;28;20047;-82
2023/07/09 05:33:56;;;;;;;6.13;5.63;;;;;;;29.08;53.40;100060.72;5075084;28;20028;-82
2023/07/09 05:36:21;;;;;;;6.68;5.95;;;;;;;29.70;52.50;100044.31;5074777;28;20056;-82
2023/07/09 05:38:47;;;;;;;7.68;6.07;;;;;;;30.92;49.70;100062.47;5075096;28;20065;-82
2023/07/09 05:41:16;;;;;;;8.02;5.95;;;;;;;31.79;48.39;100062.09;5074734;28;20028;-82
2023/07/09 05:43:43;;;;;;;5.85;5.32;;;;;;;31.41;48.77;100042.81;5074566;28;20039;-82
2023/07/09 05:46:08;;;;;;;6.07;5.47;;;;;;;30.87;48.48;100043.41;5074965;28;20052;-82
2023/07/09 05:48:33;;;;;;;6.07;5.40;;;;;;;30.48;48.64;100056.25;5074391;28;20055;-82
2023/07/09 05:50:59;;;;;;;5.28;4.78;;;;;;;30.15;49.13;100063.13;5074741;28;20052;-82
2023/07/09 05:53:25;;;;;;;6.38;5.60;;;;;;;29.83;49.05;100043.66;5074634;28;20103;-82
2023/07/09 05:55:54;;;;;;;6.43;5.82;;;;;;;29.68;48.91;100043.69;5074332;28;20039;-82
2023/07/09 05:58:20;;;;;;;6.28;5.38;;;;;;;29.76;49.44;100053.50;5075009;28;20032;-82
2023/07/09 06:00:45;;;;;;;6.15;5.55;;;;;;;29.77;49.06;100055.16;5074411;28;20024;-82
2023/07/09 06:03:10;;;;;;;6.10;5.50;;;;;;;29.75;49.79;100049.13;5074426;28;20045;-82
2023/07/09 06:05:36;;;;;;;7.40;5.65;;;;;;;29.87;50.62;100053.00;5074259;28;20074;-82
2023/07/09 06:08:03;;;;;;;6.22;5.53;;;;;;;30.02;50.74;100053.00;5074800;28;20063;-82
2023/07/09 06:10:30;;;;;;;6.32;5.55;;;;;;;30.10;50.64;100046.69;5074592;28;20035;-82
2023/07/09 06:12:58;;;;;;;6.40;5.80;;;;;;;30.33;50.54;100042.84;5074278;28;20024;-82
2023/07/09 06:15:27;;;;;;;6.28;5.53;;;;;;;30.49;50.53;100051.72;5074401;28;20035;-82
2023/07/09 06:17:52;;;;;;;7.28;6.68;;;;;;;30.61;50.03;100035.91;5074048;28;20027;-82
2023/07/09 06:20:18;;;;;;;6.70;6.10;;;;;;;30.79;49.53;100044.38;5074221;28;20024;-82
2023/07/09 06:22:43;;;;;;;5.75;5.25;;;;;;;30.99;50.35;100048.06;5074137;28;20044;-82
2023/07/09 06:25:08;;;;;;;6.57;5.97;;;;;;;31.19;49.04;100056.31;5073851;28;20024;-82
2023/07/09 06:27:34;;;;;;;6.80;5.80;;;;;;;31.31;48.54;100048.56;5074050;28;20020;-82
2023/07/09 06:29:59;;;;;;;6.25;5.63;;;;;;;31.66;48.94;100059.34;5073704;28;20037;-82
2023/07/09 06:32:25;;;;;;;7.45;6.07;;;;;;;31.95;48.28;100072.56;5074023;28;20041;-82
2023/07/09 06:34:51;;;;;;;7.00;5.95;;;;;;;32.44;47.59;100062.59;5073580;28;20477;-82
2023/07/09 06:37:16;;;;;;;6.15;5.55;;;;;;;33.16;46.50;100050.22;5073774;28;20062;-82
2023/07/09 06:39:42;;;;;;;6.60;6.00;;;;;;;34.33;45.54;100070.91;5073527;28;20016;-83
2023/07/09 06:42:07;;;;;;;6.45;5.95;;;;;;;35.49;44.31;100070.50;5073997;28;20035;-81
2023/07/09 06:44:33;;;;;;;6.72;6.07;;;;;;;36.57;42.76;100073.59;5074181;28;20028;-83
2023/07/09 06:46:58;;;;;;;6.57;5.93;;;;;;;37.58;42.09;100058.97;5073252;28;20035;-81
2023/07/09 06:49:23;;;;;;;7.18;6.18;;;;;;;38.65;41.07;100072.00;5072208;28;20486;-81
2023/07/09 06:51:49;;;;;;;8.70;6.57;;;;;;;39.33;40.70;100072.84;5073417;28;20460;-81
2023/07/09 06:54:15;;;;;;;6.95;6.35;;;;;;;40.27;39.88;100055.53;5073116;28;20438;-81
2023/07/09 06:56:41;;;;;;;6.10;5.60;;;;;;;41.25;38.96;100066.22;5073172;28;20029;-81
2023/07/09 06:59:06;;;;;;;6.63;6.07;;;;;;;42.12;38.36;100070.22;5073385;28;20478;-81
2023/07/09 07:01:31;;;;;;;6.20;5.70;;;;;;;43.08;37.16;100070.63;5073495;28;20021;-81
2023/07/09 07:03:56;;;;;;;6.95;6.35;;;;;;;43.87;36.12;100051.78;5073278;28;20036;-81
2023/07/09 07:06:22;;;;;;;6.78;6.18;;;;;;;44.73;36.36;100067.72;5073454;28;20056;-81
2023/07/09 07:08:47;;;;;;;6.35;5.75;;;;;;;44.27;35.52;100067.22;5072806;28;20116;-81
2023/07/09 07:11:13;;;;;;;6.43;5.90;;;;;;;44.46;35.50;100062.72;5073093;28;20029;-81
2023/07/09 07:13:40;;;;;;;7.00;6.15;;;;;;;45.10;35.50;100073.75;5072700;28;20036;-81
2023/07/09 07:16:07;;;;;;;8.70;6.47;;;;;;;45.37;34.50;100070.41;5072953;28;20078;-81
2023/07/09 07:18:33;;;;;;;7.70;6.97;;;;;;;44.61;36.41;100055.44;5072893;28;20048;-81
2023/07/09 07:20:59;;;;;;;7.78;7.05;;;;;;;44.29;36.79;100057.59;5071204;28;20028;-81
2023/07/09 07:23:24;;;;;;;7.22;6.60;;;;;;;43.88;37.04;100064.41;5072539;28;20483;-81
2023/07/09 07:25:51;;;;;;;7.10;6.50;;;;;;;44.55;36.76;100063.72;5072636;28;20107;-81
2023/07/09 07:28:17;;;;;;;7.65;6.95;;;;;;;44.80;36.46;100067.41;5072980;28;20032;-81
2023/07/09 07:30:42;;;;;;;8.18;7.55;;;;;;;44.34;36.36;100075.97;5072407;28;20032;-81
2023/07/09 07:33:08;;;;;;;8.15;7.40;;;;;;;44.79;36.27;100073.97;5072791;28;20033;-81
2023/07/09 07:35:34;;;;;;;8.40;7.03;;;;;;;44.43;36.43;100073.44;5072673;28;20487;-81
2023/07/09 07:37:59;;;;;;;7.70;7.03;;;;;;;44.21;36.58;100068.34;5070167;28;20135;-81
2023/07/09 07:40:24;;;;;;;9.10;8.27;;;;;;;44.08;36.44;100067.06;5073618;28;20108;-81
2023/07/09 07:42:50;;;;;;;8.60;7.70;;;;;;;44.12;36.59;100059.84;5072446;28;20025;-81
2023/07/09 07:45:16;;;;;;;8.55;7.72;;;;;;;44.71;36.43;100060.88;5072608;28;20021;-81
2023/07/09 07:47:42;;;;;;;8.15;7.45;;;;;;;44.55;35.99;100058.22;5072336;28;20025;-81
2023/07/09 07:50:08;;;;;;;7.28;6.68;;;;;;;44.44;34.96;100064.09;5072490;28;20032;-81
2023/07/09 07:52:37;;;;;;;7.38;6.78;;;;;;;44.51;34.66;100072.81;5072401;28;20467;-81
2023/07/09 07:55:06;;;;;;;7.40;5.90;;;;;;;44.76;35.17;100067.16;5072325;28;20082;-81
2023/07/09 07:57:32;;;;;;;6.57;5.97;;;;;;;45.40;34.70;100075.34;5072324;28;20388;-81
2023/07/09 07:59:57;;;;;;;6.75;6.15;;;;;;;45.92;33.92;100068.97;5072096;28;20106;-81
2023/07/09 08:02:23;;;;;;;6.28;5.78;;;;;;;46.36;33.22;100061.47;5072464;28;20427;-81
2023/07/09 08:04:50;;;;;;;6.80;6.20;;;;;;;46.73;33.35;100066.94;5072100;28;20035;-81
2023/07/09 08:07:17;;;;;;;6.07;5.57;;;;;;;47.07;32.90;100071.31;5072709;28;20107;-81
2023/07/09 08:09:42;;;;;;;5.80;5.40;;;;;;;47.01;32.83;100069.78;5072271;28;20094;-82
2023/07/09 08:12:11;;;;;;;6.65;6.25;;;;;;;46.42;32.77;100079.56;5072597;28;20468;-81
2023/07/09 08:14:36;;;;;;;6.60;6.00;;;;;;;45.73;33.70;100079.09;5072248;28;20526;-81
2023/07/09 08:17:02;;;;;;;7.15;6.45;;;;;;;45.14;33.41;100080.31;5072279;28;20028;-81
2023/07/09 08:19:28;;;;;;;7.70;6.32;;;;;;;43.55;34.67;100056.56;5072268;28;20069;-81
2023/07/09 08:21:53;;;;;;;5.90;5.15;;;;;;;42.26;35.52;100056.03;5071979;28;20513;-81
2023/07/09 08:24:18;;;;;;;5.40;4.90;;;;;;;40.30;35.03;100049.56;5072225;28;20060;-81
2023/07/09 08:26:43;;;;;;;6.20;5.70;;;;;;;38.86;36.36;100050.59;5072294;28;20099;-81
2023/07/09 08:29:09;;;;;;;7.32;5.78;;;;;;;37.65;37.80;100065.09;5071030;28;20063;-81
2023/07/09 08:31:34;;;;;;;5.95;5.45;;;;;;;36.88;38.71;100070.59;5072563;28;20020;-83
2023/07/09 08:34:00;;;;;;;6.15;5.55;;;;;;;36.43;39.37;100064.78;5072371;28;20029;-82
2023/07/09 08:36:25;;;;;;;5.90;5.38;;;;;;;35.98;40.22;100048.91;5071884;28;20045;-81
2023/07/09 08:38:50;;;;;;;5.68;5.18;;;;;;;35.40;39.85;100042.03;5071922;28;20166;-81
2023/07/09 08:41:32;;;;;;;5.90;5.28;;;;;;;34.86;39.75;100032.72;5071796;28;20111;-81
2023/07/09 08:44:09;;;;;;;6.32;5.00;;;;;;;34.64;40.38;100072.84;5071713;28;20028;-81
2023/07/09 08:47:08;;;;;;;6.32;5.22;;;;;;;34.23;39.96;100067.84;5071882;28;20112;-81
2023/07/09 08:49:45;;;;;;;5.50;5.03;;;;;;;33.86;40.71;100062.16;5072281;28;20089;-82
2023/07/09 08:52:24;;;;;;;7.28;6.43;;;;;;;33.66;41.59;100067.63;5072077;28;20060;-82
2023/07/09 08:54:50;;;;;;;6.28;5.68;;;;;;;33.34;43.31;100045.03;5071754;28;20103;-82
2023/07/09 08:57:26;;;;;;;6.15;5.47;;;;;;;33.33;42.43;100061.41;5071839;28;20044;-82
2023/07/09 08:59:59;;;;;;;5.80;5.25;;;;;;;33.17;42.50;100063.53;5071827;28;20025;-82
2023/07/09 09:02:44;;;;;;;6.03;5.43;;;;;;;33.00;41.70;100062.28;5071905;28;20024;-81
2023/07/09 09:05:15;;;;;;;6.32;4.93;;;;;;;32.70;40.65;100051.00;5072227;28;20029;-82
2023/07/09 09:07:43;;;;;;;5.32;4.82;;;;;;;32.77;41.62;100047.28;5071924;28;20041;-82
2023/07/09 09:10:17;;;;;;;6.43;5.10;;;;;;;32.73;40.50;100048.75;5071685;28;20120;-82
2023/07/09 09:13:10;;;;;;;5.35;4.85;;;;;;;32.64;41.83;100052.69;5075326;28;20052;-82
2023/07/09 09:15:39;;;;;;;5.50;5.00;;;;;;;32.40;41.35;100035.19;5073104;28;20087;-82
2023/07/09 09:18:18;;;;;;;5.13;4.72;;;;;;;32.33;40.21;100061.31;5072965;28;20101;-82
2023/07/09 09:20:48;;;;;;;5.10;4.15;;;;;;;32.10;40.13;100060.81;5071991;28;20032;-82
2023/07/09 09:23:15;;;;;;;4.93;4.50;;;;;;;31.99;40.36;100065.75;5072693;28;20059;-82
2023/07/09 09:25:47;;;;;;;5.30;4.57;;;;;;;31.73;41.97;100020.63;5072628;28;20027;-82
2023/07/09 09:28:14;;;;;;;5.25;4.85;;;;;;;31.91;40.86;100046.22;5052751;28;20078;-82
2023/07/09 09:30:39;;;;;;;6.80;5.22;;;;;;;31.72;41.35;100048.56;5052534;28;20029;-82
2023/07/09 09:33:11;;;;;;;4.97;4.57;;;;;;;31.52;42.24;100036.88;5071389;28;20138;-82
2023/07/09 09:35:43;;;;;;;4.68;4.28;;;;;;;31.53;40.87;100050.16;5072441;28;20029;-82
2023/07/09 09:38:15;;;;;;;5.35;4.85;;;;;;;31.43;41.06;100064.97;5071927;28;20105;-82
2023/07/09 09:40:41;;;;;;;5.53;5.00;;;;;;;31.40;41.20;100073.47;5055562;28;20369;-80
2023/07/09 09:43:15;;;;;;;7.03;5.28;;;;;;;31.28;41.65;100062.38;5071631;28;20167;-82
2023/07/09 09:45:44;;;;;;;4.97;4.38;;;;;;;31.19;41.69;100048.22;5071957;28;20036;-82
2023/07/09 09:48:19;;;;;;;6.32;4.63;;;;;;;31.28;42.12;100060.53;5071977;28;20198;-81
2023/07/09 09:50:47;;;;;;;4.88;4.35;;;;;;;31.43;42.13;100055.03;5072075;28;20480;-82
2023/07/09 09:53:22;;;;;;;5.57;4.53;;;;;;;31.61;42.07;100059.09;5073498;28;20057;-82
2023/07/09 09:55:49;;;;;;;6.13;4.75;;;;;;;31.78;41.43;100076.59;5072464;28;20392;-82
2023/07/09 09:58:17;;;;;;;5.35;4.90;;;;;;;31.71;41.10;100071.16;5082421;28;20039;-83
2023/07/09 10:00:51;;;;;;;4.90;4.50;;;;;;;31.63;41.15;100081.25;5094965;28;20026;-81
2023/07/09 10:03:17;;;;;;;4.72;4.32;;;;;;;31.44;41.97;100058.59;5095137;28;20490;-82
2023/07/09 10:05:57;;;;;;;4.93;4.53;;;;;;;31.25;41.51;100052.00;5095039;28;20032;-83
2023/07/09 10:08:44;;;;;;;4.70;4.30;;;;;;;31.59;41.46;100080.81;5074836;28;20028;-81
2023/07/09 10:11:30;;;;;;;16.40;4.90;;;;;;;31.33;40.95;100062.63;5074032;28;20396;-81
2023/07/09 10:14:00;;;;;;;4.88;4.18;;;;;;;31.42;42.46;100074.91;5074487;28;20036;-82
2023/07/09 10:16:35;;;;;;;5.40;4.90;;;;;;;31.40;40.86;100062.69;5074626;28;20024;-81
2023/07/09 10:19:23;;;;;;;5.65;4.78;;;;;;;31.54;41.16;100077.91;5073751;28;20025;-81
2023/07/09 10:21:52;;;;;;;4.53;4.13;;;;;;;31.57;41.53;100082.91;5073782;28;20017;-81
2023/07/09 10:24:40;;;;;;;5.43;4.47;;;;;;;31.73;42.71;100093.34;5073588;28;20116;-82
2023/07/09 10:27:13;;;;;;;6.03;4.40;;;;;;;31.78;42.19;100082.81;5073555;28;20115;-81
2023/07/09 10:29:57;;;;;;;5.45;4.88;;;;;;;31.85;41.44;100082.84;5073791;28;20033;-82
2023/07/09 10:32:39;;;;;;;5.90;4.43;;;;;;;31.64;41.62;100078.34;5073750;28;20024;-82
2023/07/09 10:35:33;;;;;;;4.60;4.22;;;;;;;31.63;41.03;100082.09;5073251;28;20029;-81
2023/07/09 10:38:27;;;;;;;4.65;4.25;;;;;;;31.64;41.56;100085.59;5070914;28;20091;-82
2023/07/09 10:40:57;;;;;;;6.93;4.82;;;;;;;31.57;42.29;100050.59;5071050;28;20024;-80
2023/07/09 10:43:31;;;;;;;5.45;4.38;;;;;;;31.81;41.30;100070.78;5071155;28;20067;-80
2023/07/09 10:46:04;;;;;;;5.32;4.43;;;;;;;31.43;41.70;100041.56;5071061;28;20028;-80
2023/07/09 10:48:46;;;;;;;7.03;4.50;;;;;;;31.48;41.72;100066.06;5071076;28;20044;-80
2023/07/09 10:51:29;;;;;;;5.72;5.18;;;;;;;31.44;42.02;100067.50;5071009;28;20033;-81
2023/07/09 10:54:12;;;;;;;5.50;4.95;;;;;;;31.52;42.30;100070.03;5073323;28;20043;-82
2023/07/09 10:56:38;;;;;;;6.15;4.65;;;;;;;31.52;41.21;100066.47;5086488;28;20127;-82
2023/07/09 10:59:22;;;;;;;7.30;4.93;;;;;;;31.45;41.11;100062.94;5066547;28;20024;-82
2023/07/09 11:01:51;;;;;;;10.60;5.63;;;;;;;31.50;41.19;100060.47;5087279;28;20036;-82
2023/07/09 11:04:42;;;;;;;5.75;4.82;;;;;;;31.43;40.31;100070.34;5088566;28;20032;-82
2023/07/09 11:07:12;;;;;;;;;;;;;;;31.28;41.00;100065.06;5070751;28;20024;-82
2023/07/09 11:09:41;;;;;;;5.60;4.30;;;;;;;31.18;41.15;100043.03;5070773;28;19917;-82
2023/07/09 11:12:19;;;;;;;5.00;4.60;;;;;;;31.37;41.76;100068.47;5070203;28;20144;-82
2023/07/09 11:14:55;;;;;;;13.43;4.97;;;;;;;31.46;42.07;100051.13;5071539;28;20044;-82
2023/07/09 11:17:22;;;;;;;7.38;4.80;;;;;;;31.52;41.25;100053.00;5073480;28;20531;-82
2023/07/09 11:19:57;;;;;;;5.95;4.38;;;;;;;31.45;41.86;100038.72;5092604;28;20036;-80
2023/07/09 11:22:39;;;;;;;5.32;4.82;;;;;;;31.53;41.38;100058.22;5085818;28;20103;-80
2023/07/09 11:25:04;;;;;;;5.07;4.57;;;;;;;31.55;41.49;100061.53;5072900;28;20365;-81
2023/07/09 11:27:30;;;;;;;5.32;4.82;;;;;;;31.58;41.53;100048.72;5072905;28;20082;-82
2023/07/09 11:30:19;;;;;;;6.50;4.78;;;;;;;31.76;42.37;100049.00;5072418;28;20051;-82
2023/07/09 11:32:46;;;;;;;4.93;4.53;;;;;;;31.90;43.55;100048.09;5072524;28;20039;-82
2023/07/09 11:35:25;;;;;;;6.05;4.78;;;;;;;31.82;41.59;100031.25;5072634;28;20028;-82
2023/07/09 11:37:53;;;;;;;5.30;4.80;;;;;;;31.92;41.66;100037.94;5073053;28;20071;-82